Dunlap Lake, Illinois
Current Conditions -  °F | °C
As of 2:35 AM on Friday 19 Dec 2014 (Local Time) from KALN Reporting Station
Overcast Overcast  
Wind Chill: 31°   Ceiling: 2900
Heat Index: 31°   Visibility: 7mi
Dew Point: 27°   Wind: 3mph
Humidity: 85%   Direction: 40°NE
Pressure: 30.29"   Gusts: NA
Location:  38.8031°N, 89.9742°W
Report Text: KALN 190835Z AUTO 04003KT 7SM OVC029 00/M03 A3029 RMK AO2 T10051027
Loading
Personal Weather Stations






























Interactive Weather Map New forecast layout! Learn more

10-Day Weather Forecast

Advertisements
Track Severe Weather on mobile